Terminal Aerodrome Forecast
Issued by NWS

Home | Current Version | Previous Version | Graphics & Text | Print | Product List | Glossary Off
Versions: 1 2 3 4 5 6 7 8 9 10 11 12 13 14 15 16 17 18 19 20 21 22 23

000
FTUS43 KABR 222300
TAFPIR
TAF
KPIR 222340Z 2300/2324 30006KT P6SM SCT100 BKN250
     FM230600 30010KT P6SM OVC090
     FM231100 30016G25KT P6SM SCT090 BKN150
     FM231700 31029G38KT P6SM BKN150=

USA.gov is the U.S. government's official web portal to all federal, state and local government web resources and services.